logo
Search for airport 
image banner adimage banner adimage banner ad
image banner ad

FA0321 - Monstermob Helistop

Located in , South Africa

ICAO - , IATA -

Data provided by Airmate  

General information

Coordinates: S28°43'40" E24°46'48"
Elevation is 3999 feet MSL.
 
View others Airports in Northern Cape

Operational data

Special qualification required
Current time UTC:
Current local time:
Weather at : FAKM - Kimberley ( 8 km )
METAR: FAKM 230300Z 35003KT CAVOK 12/09 Q1019
TAF: TAF FAKM 230300Z 2304/2315 VRB03KT CAVOK TX30/2312Z TN11/2304Z
View NOTAMs / SUP AIP / TFR affecting this airport [VIEW]
Communications frequencies: [VIEW]

Runways:

Airport contact information

Address: South Africa

Satellite view of FA0321